KMHK/MHK METAR and TAF weather

Enter ICAO airport designator
Station Type Date Time Source
KMHK METAR 2022/11/27 06:52 UTC NOAA

KMHK 270652Z AUTO 34009G19KT 6SM RA OVC055 07/04 A2965 RMK AO2 SLP041 P0010 T00670039


Station Type Date Time Source
KMHK Decoded METAR 2022/11/27 06:52 UTC NOAA

MANHATTAN REGIONAL AIRPORT, KS, United States (KMHK) 39-08N 96-41W 317M
Nov 27, 2022 - 01:52 AM EST / 2022.11.27 0652 UTC
Wind: from the NNW (340 degrees) at 10 MPH (9 KT) gusting to 22 MPH (19 KT):0
Visibility: 6 mile(s):0
Sky conditions: overcast
Weather: rain
Precipitation last hour: 0.10 inches
Temperature: 44.1 F (6.7 C)
Dew Point: 39.0 F (3.9 C)
Relative Humidity: 82%
Pressure (altimeter): 29.65 in. Hg (1004 hPa)
ob: KMHK 270652Z AUTO 34009G19KT 6SM RA OVC055 07/04 A2965 RMK AO2 SLP041 P0010 T00670039
cycle: 7

Station Type Date Time Source
KMHK TAF 2022/11/27 07:18 UTC NOAA

TAF
AMD KMHK 270716Z 2707/2806 35011G23KT 6SM -RA OVC050
FM271000 35011G23KT P6SM BKN060

Example: see airport list